sensor_id;sensor_type;location;lat;lon;timestamp;temperature;humidity
8220;DHT22;4151;51.110;7.020;2023-05-17T00:01:47;7.70;99.90
8220;DHT22;4151;51.110;7.020;2023-05-17T00:04:13;7.60;99.90
8220;DHT22;4151;51.110;7.020;2023-05-17T00:06:38;7.60;99.90
8220;DHT22;4151;51.110;7.020;2023-05-17T00:09:04;7.60;99.90
8220;DHT22;4151;51.110;7.020;2023-05-17T00:11:29;7.60;99.90
8220;DHT22;4151;51.110;7.020;2023-05-17T00:13:55;7.60;99.90
8220;DHT22;4151;51.110;7.020;2023-05-17T00:16:21;7.60;99.90
8220;DHT22;4151;51.110;7.020;2023-05-17T00:18:46;7.60;99.90
8220;DHT22;4151;51.110;7.020;2023-05-17T00:21:12;7.60;99.90
8220;DHT22;4151;51.110;7.020;2023-05-17T00:23:37;7.50;99.90
8220;DHT22;4151;51.110;7.020;2023-05-17T00:26:03;7.40;99.90
8220;DHT22;4151;51.110;7.020;2023-05-17T00:28:29;7.40;99.90
8220;DHT22;4151;51.110;7.020;2023-05-17T00:30:54;7.40;99.90
8220;DHT22;4151;51.110;7.020;2023-05-17T00:33:20;7.40;99.90
8220;DHT22;4151;51.110;7.020;2023-05-17T00:35:45;7.40;99.90
8220;DHT22;4151;51.110;7.020;2023-05-17T00:38:11;7.40;99.90
8220;DHT22;4151;51.110;7.020;2023-05-17T00:40:37;7.40;99.90
8220;DHT22;4151;51.110;7.020;2023-05-17T00:43:02;7.40;99.90
8220;DHT22;4151;51.110;7.020;2023-05-17T00:45:28;7.40;99.90
8220;DHT22;4151;51.110;7.020;2023-05-17T00:47:53;7.40;99.90
8220;DHT22;4151;51.110;7.020;2023-05-17T00:50:19;7.40;99.90
8220;DHT22;4151;51.110;7.020;2023-05-17T00:52:45;7.40;99.90
8220;DHT22;4151;51.110;7.020;2023-05-17T00:55:11;7.40;99.90
8220;DHT22;4151;51.110;7.020;2023-05-17T00:57:37;7.40;99.90
8220;DHT22;4151;51.110;7.020;2023-05-17T01:00:04;7.40;99.90
8220;DHT22;4151;51.110;7.020;2023-05-17T01:02:30;7.50;99.90
8220;DHT22;4151;51.110;7.020;2023-05-17T01:04:56;7.50;99.90
8220;DHT22;4151;51.110;7.020;2023-05-17T01:07:22;7.50;99.90
8220;DHT22;4151;51.110;7.020;2023-05-17T01:09:48;7.50;99.90
8220;DHT22;4151;51.110;7.020;2023-05-17T01:15:21;7.50;99.90
8220;DHT22;4151;51.110;7.020;2023-05-17T01:18:19;7.50;99.90
8220;DHT22;4151;51.110;7.020;2023-05-17T01:20:47;7.40;99.90
8220;DHT22;4151;51.110;7.020;2023-05-17T01:28:40;7.40;99.90
8220;DHT22;4151;51.110;7.020;2023-05-17T01:31:08;7.50;99.90
8220;DHT22;4151;51.110;7.020;2023-05-17T01:33:35;7.50;99.90
8220;DHT22;4151;51.110;7.020;2023-05-17T01:36:01;7.60;99.90
8220;DHT22;4151;51.110;7.020;2023-05-17T01:38:27;7.60;99.90
8220;DHT22;4151;51.110;7.020;2023-05-17T01:41:02;7.60;99.90
8220;DHT22;4151;51.110;7.020;2023-05-17T01:46:27;7.50;99.90
8220;DHT22;4151;51.110;7.020;2023-05-17T01:49:16;7.50;99.90
8220;DHT22;4151;51.110;7.020;2023-05-17T01:54:30;7.30;99.90
8220;DHT22;4151;51.110;7.020;2023-05-17T01:56:59;7.30;99.90
8220;DHT22;4151;51.110;7.020;2023-05-17T01:59:28;7.20;99.90
8220;DHT22;4151;51.110;7.020;2023-05-17T02:01:58;7.20;99.90
8220;DHT22;4151;51.110;7.020;2023-05-17T02:04:30;7.10;99.90
8220;DHT22;4151;51.110;7.020;2023-05-17T02:06:56;7.10;99.90
8220;DHT22;4151;51.110;7.020;2023-05-17T02:09:21;7.10;99.90
8220;DHT22;4151;51.110;7.020;2023-05-17T02:11:47;7.00;99.90
8220;DHT22;4151;51.110;7.020;2023-05-17T02:14:13;7.00;99.90
8220;DHT22;4151;51.110;7.020;2023-05-17T02:16:38;6.90;99.90
8220;DHT22;4151;51.110;7.020;2023-05-17T02:19:04;6.90;99.90
8220;DHT22;4151;51.110;7.020;2023-05-17T02:21:29;6.80;99.90
8220;DHT22;4151;51.110;7.020;2023-05-17T02:23:55;6.80;99.90
8220;DHT22;4151;51.110;7.020;2023-05-17T02:26:20;6.80;99.90
8220;DHT22;4151;51.110;7.020;2023-05-17T02:28:46;6.80;99.90
8220;DHT22;4151;51.110;7.020;2023-05-17T02:31:11;6.80;99.90
8220;DHT22;4151;51.110;7.020;2023-05-17T02:33:37;6.80;99.90
8220;DHT22;4151;51.110;7.020;2023-05-17T02:36:03;6.80;99.90
8220;DHT22;4151;51.110;7.020;2023-05-17T02:38:28;6.80;99.90
8220;DHT22;4151;51.110;7.020;2023-05-17T02:40:54;6.70;99.90
8220;DHT22;4151;51.110;7.020;2023-05-17T02:43:20;6.60;99.90
8220;DHT22;4151;51.110;7.020;2023-05-17T02:45:45;6.60;99.90
8220;DHT22;4151;51.110;7.020;2023-05-17T02:48:11;6.60;99.90
8220;DHT22;4151;51.110;7.020;2023-05-17T02:50:37;6.60;99.90
8220;DHT22;4151;51.110;7.020;2023-05-17T02:53:02;6.50;99.90
8220;DHT22;4151;51.110;7.020;2023-05-17T02:55:28;6.50;99.90
8220;DHT22;4151;51.110;7.020;2023-05-17T02:57:53;6.50;99.90
8220;DHT22;4151;51.110;7.020;2023-05-17T03:00:19;6.50;99.90
8220;DHT22;4151;51.110;7.020;2023-05-17T03:02:44;6.40;99.90
8220;DHT22;4151;51.110;7.020;2023-05-17T03:05:10;6.40;99.90
8220;DHT22;4151;51.110;7.020;2023-05-17T03:07:36;6.40;99.90
8220;DHT22;4151;51.110;7.020;2023-05-17T03:10:02;6.40;99.90
8220;DHT22;4151;51.110;7.020;2023-05-17T03:12:27;6.40;99.90
8220;DHT22;4151;51.110;7.020;2023-05-17T03:14:53;6.40;99.90
8220;DHT22;4151;51.110;7.020;2023-05-17T03:17:18;6.30;99.90
8220;DHT22;4151;51.110;7.020;2023-05-17T03:19:44;6.30;99.90
8220;DHT22;4151;51.110;7.020;2023-05-17T03:22:09;6.30;99.90
8220;DHT22;4151;51.110;7.020;2023-05-17T03:24:35;6.30;99.90
8220;DHT22;4151;51.110;7.020;2023-05-17T03:27:00;6.20;99.90
8220;DHT22;4151;51.110;7.020;2023-05-17T03:29:26;6.20;99.90
8220;DHT22;4151;51.110;7.020;2023-05-17T03:31:51;6.30;99.90
8220;DHT22;4151;51.110;7.020;2023-05-17T03:34:17;6.30;99.90
8220;DHT22;4151;51.110;7.020;2023-05-17T03:36:43;6.30;99.90
8220;DHT22;4151;51.110;7.020;2023-05-17T03:39:08;6.40;99.90
8220;DHT22;4151;51.110;7.020;2023-05-17T03:41:34;6.50;99.90
8220;DHT22;4151;51.110;7.020;2023-05-17T03:43:59;6.50;99.90
8220;DHT22;4151;51.110;7.020;2023-05-17T03:46:25;6.50;99.90
8220;DHT22;4151;51.110;7.020;2023-05-17T03:48:51;6.50;99.90
8220;DHT22;4151;51.110;7.020;2023-05-17T03:51:16;6.50;99.90
8220;DHT22;4151;51.110;7.020;2023-05-17T03:53:42;6.50;99.90
8220;DHT22;4151;51.110;7.020;2023-05-17T03:56:09;6.50;99.90
8220;DHT22;4151;51.110;7.020;2023-05-17T03:58:34;6.40;99.90
8220;DHT22;4151;51.110;7.020;2023-05-17T04:01:01;6.40;99.90
8220;DHT22;4151;51.110;7.020;2023-05-17T04:03:27;6.40;99.90
8220;DHT22;4151;51.110;7.020;2023-05-17T04:05:52;6.40;99.90
8220;DHT22;4151;51.110;7.020;2023-05-17T04:08:18;6.50;99.90
8220;DHT22;4151;51.110;7.020;2023-05-17T04:10:43;6.50;99.90
8220;DHT22;4151;51.110;7.020;2023-05-17T04:13:09;6.40;99.90
8220;DHT22;4151;51.110;7.020;2023-05-17T04:15:35;6.40;99.90
8220;DHT22;4151;51.110;7.020;2023-05-17T04:18:01;6.50;99.90
8220;DHT22;4151;51.110;7.020;2023-05-17T04:20:26;6.50;99.90
8220;DHT22;4151;51.110;7.020;2023-05-17T04:22:52;6.50;99.90
8220;DHT22;4151;51.110;7.020;2023-05-17T04:25:17;6.60;99.90
8220;DHT22;4151;51.110;7.020;2023-05-17T04:27:44;6.70;99.90
8220;DHT22;4151;51.110;7.020;2023-05-17T04:30:11;6.80;99.90
8220;DHT22;4151;51.110;7.020;2023-05-17T04:32:37;6.90;99.90
8220;DHT22;4151;51.110;7.020;2023-05-17T04:35:03;7.00;99.90
8220;DHT22;4151;51.110;7.020;2023-05-17T04:37:29;7.10;99.90
8220;DHT22;4151;51.110;7.020;2023-05-17T04:39:55;7.20;99.90
8220;DHT22;4151;51.110;7.020;2023-05-17T04:42:20;7.40;99.90
8220;DHT22;4151;51.110;7.020;2023-05-17T04:44:46;7.40;99.90
8220;DHT22;4151;51.110;7.020;2023-05-17T04:47:12;7.60;99.90
8220;DHT22;4151;51.110;7.020;2023-05-17T04:49:37;7.60;99.90
8220;DHT22;4151;51.110;7.020;2023-05-17T04:52:03;7.60;99.90
8220;DHT22;4151;51.110;7.020;2023-05-17T04:54:29;7.70;99.90
8220;DHT22;4151;51.110;7.020;2023-05-17T04:56:54;7.80;99.90
8220;DHT22;4151;51.110;7.020;2023-05-17T04:59:20;7.90;99.90
8220;DHT22;4151;51.110;7.020;2023-05-17T05:01:46;7.90;99.90
8220;DHT22;4151;51.110;7.020;2023-05-17T05:04:12;8.00;99.90
8220;DHT22;4151;51.110;7.020;2023-05-17T05:06:37;8.00;99.90
8220;DHT22;4151;51.110;7.020;2023-05-17T05:09:03;8.10;99.90
8220;DHT22;4151;51.110;7.020;2023-05-17T05:11:29;8.10;99.90
8220;DHT22;4151;51.110;7.020;2023-05-17T05:13:55;8.10;99.90
8220;DHT22;4151;51.110;7.020;2023-05-17T05:16:21;8.20;99.90
8220;DHT22;4151;51.110;7.020;2023-05-17T05:18:46;8.20;99.90
8220;DHT22;4151;51.110;7.020;2023-05-17T05:21:12;8.20;99.90
8220;DHT22;4151;51.110;7.020;2023-05-17T05:23:37;8.20;99.90
8220;DHT22;4151;51.110;7.020;2023-05-17T05:26:03;8.30;99.90
8220;DHT22;4151;51.110;7.020;2023-05-17T05:28:29;8.40;99.90
8220;DHT22;4151;51.110;7.020;2023-05-17T05:30:59;8.40;99.90
8220;DHT22;4151;51.110;7.020;2023-05-17T05:33:25;8.40;99.90
8220;DHT22;4151;51.110;7.020;2023-05-17T05:35:50;8.50;99.90
8220;DHT22;4151;51.110;7.020;2023-05-17T05:38:16;8.60;99.90
8220;DHT22;4151;51.110;7.020;2023-05-17T05:40:41;8.60;99.90
8220;DHT22;4151;51.110;7.020;2023-05-17T05:43:07;8.60;99.90
8220;DHT22;4151;51.110;7.020;2023-05-17T05:45:32;8.60;99.90
8220;DHT22;4151;51.110;7.020;2023-05-17T05:47:58;8.70;99.90
8220;DHT22;4151;51.110;7.020;2023-05-17T05:50:23;8.70;99.90
8220;DHT22;4151;51.110;7.020;2023-05-17T05:52:49;8.90;99.90
8220;DHT22;4151;51.110;7.020;2023-05-17T05:55:15;9.00;99.90
8220;DHT22;4151;51.110;7.020;2023-05-17T05:57:40;9.00;99.90
8220;DHT22;4151;51.110;7.020;2023-05-17T06:00:06;9.00;99.90
8220;DHT22;4151;51.110;7.020;2023-05-17T06:02:32;8.90;99.90
8220;DHT22;4151;51.110;7.020;2023-05-17T06:04:57;8.90;99.90
8220;DHT22;4151;51.110;7.020;2023-05-17T06:07:23;9.00;99.90
8220;DHT22;4151;51.110;7.020;2023-05-17T06:09:48;9.00;99.90
8220;DHT22;4151;51.110;7.020;2023-05-17T06:12:14;9.10;99.90
8220;DHT22;4151;51.110;7.020;2023-05-17T06:14:40;9.20;99.90
8220;DHT22;4151;51.110;7.020;2023-05-17T06:17:06;9.20;99.90
8220;DHT22;4151;51.110;7.020;2023-05-17T06:19:31;9.30;99.90
8220;DHT22;4151;51.110;7.020;2023-05-17T06:21:57;9.30;99.90
8220;DHT22;4151;51.110;7.020;2023-05-17T06:24:22;9.30;99.90
8220;DHT22;4151;51.110;7.020;2023-05-17T06:26:48;9.40;99.90
8220;DHT22;4151;51.110;7.020;2023-05-17T06:29:13;9.50;99.90
8220;DHT22;4151;51.110;7.020;2023-05-17T06:31:39;9.50;99.90
8220;DHT22;4151;51.110;7.020;2023-05-17T06:34:05;9.60;99.90
8220;DHT22;4151;51.110;7.020;2023-05-17T06:36:30;9.80;99.90
8220;DHT22;4151;51.110;7.020;2023-05-17T06:38:56;10.00;99.90
8220;DHT22;4151;51.110;7.020;2023-05-17T06:41:21;10.10;99.90
8220;DHT22;4151;51.110;7.020;2023-05-17T06:43:47;10.30;99.90
8220;DHT22;4151;51.110;7.020;2023-05-17T06:46:12;10.50;99.90
8220;DHT22;4151;51.110;7.020;2023-05-17T06:48:38;10.60;99.90
8220;DHT22;4151;51.110;7.020;2023-05-17T06:51:03;10.70;99.90
8220;DHT22;4151;51.110;7.020;2023-05-17T06:53:29;10.70;99.90
8220;DHT22;4151;51.110;7.020;2023-05-17T06:55:54;10.80;99.90
8220;DHT22;4151;51.110;7.020;2023-05-17T06:58:20;10.90;99.90
8220;DHT22;4151;51.110;7.020;2023-05-17T07:00:46;11.00;99.90
8220;DHT22;4151;51.110;7.020;2023-05-17T07:03:11;11.10;99.90
8220;DHT22;4151;51.110;7.020;2023-05-17T07:05:37;11.20;99.90
8220;DHT22;4151;51.110;7.020;2023-05-17T07:08:03;11.30;99.90
8220;DHT22;4151;51.110;7.020;2023-05-17T07:10:29;11.20;99.90
8220;DHT22;4151;51.110;7.020;2023-05-17T07:12:54;11.30;99.90
8220;DHT22;4151;51.110;7.020;2023-05-17T07:15:20;11.30;99.90
8220;DHT22;4151;51.110;7.020;2023-05-17T07:17:45;11.20;99.90
8220;DHT22;4151;51.110;7.020;2023-05-17T07:20:12;11.20;99.90
8220;DHT22;4151;51.110;7.020;2023-05-17T07:22:39;11.10;99.90
8220;DHT22;4151;51.110;7.020;2023-05-17T07:25:05;11.20;99.90
8220;DHT22;4151;51.110;7.020;2023-05-17T07:27:31;11.30;99.90
8220;DHT22;4151;51.110;7.020;2023-05-17T07:29:56;11.60;99.90
8220;DHT22;4151;51.110;7.020;2023-05-17T07:32:22;11.80;99.90
8220;DHT22;4151;51.110;7.020;2023-05-17T07:34:47;11.90;99.90
8220;DHT22;4151;51.110;7.020;2023-05-17T07:37:13;11.90;99.90
8220;DHT22;4151;51.110;7.020;2023-05-17T07:39:38;11.80;99.90
8220;DHT22;4151;51.110;7.020;2023-05-17T07:42:05;11.90;99.90
8220;DHT22;4151;51.110;7.020;2023-05-17T07:44:31;11.90;99.90
8220;DHT22;4151;51.110;7.020;2023-05-17T07:46:56;12.20;99.90
8220;DHT22;4151;51.110;7.020;2023-05-17T07:49:22;12.40;99.90
8220;DHT22;4151;51.110;7.020;2023-05-17T07:51:48;12.40;99.90
8220;DHT22;4151;51.110;7.020;2023-05-17T07:54:24;12.20;99.90
8220;DHT22;4151;51.110;7.020;2023-05-17T07:56:51;12.30;99.90
8220;DHT22;4151;51.110;7.020;2023-05-17T07:59:19;12.40;99.90
8220;DHT22;4151;51.110;7.020;2023-05-17T08:01:45;12.50;99.90
8220;DHT22;4151;51.110;7.020;2023-05-17T08:04:11;12.70;99.90
8220;DHT22;4151;51.110;7.020;2023-05-17T08:06:38;13.00;99.90
8220;DHT22;4151;51.110;7.020;2023-05-17T08:09:05;13.10;99.90
8220;DHT22;4151;51.110;7.020;2023-05-17T08:11:31;13.20;99.90
8220;DHT22;4151;51.110;7.020;2023-05-17T08:13:58;13.50;99.90
8220;DHT22;4151;51.110;7.020;2023-05-17T08:16:24;13.60;99.90
8220;DHT22;4151;51.110;7.020;2023-05-17T08:18:50;13.70;99.90
8220;DHT22;4151;51.110;7.020;2023-05-17T08:21:16;13.90;99.90
8220;DHT22;4151;51.110;7.020;2023-05-17T08:23:42;14.10;99.90
8220;DHT22;4151;51.110;7.020;2023-05-17T08:26:07;14.20;99.90
8220;DHT22;4151;51.110;7.020;2023-05-17T08:28:33;14.20;99.90
8220;DHT22;4151;51.110;7.020;2023-05-17T08:30:59;14.30;99.90
8220;DHT22;4151;51.110;7.020;2023-05-17T08:33:24;14.40;99.90
8220;DHT22;4151;51.110;7.020;2023-05-17T08:35:51;14.20;99.90
8220;DHT22;4151;51.110;7.020;2023-05-17T08:38:21;14.30;99.90
8220;DHT22;4151;51.110;7.020;2023-05-17T08:40:53;14.30;99.90
8220;DHT22;4151;51.110;7.020;2023-05-17T08:43:19;14.60;99.90
8220;DHT22;4151;51.110;7.020;2023-05-17T08:45:47;14.90;99.90
8220;DHT22;4151;51.110;7.020;2023-05-17T08:48:14;15.00;99.90
8220;DHT22;4151;51.110;7.020;2023-05-17T08:50:41;15.30;99.90
8220;DHT22;4151;51.110;7.020;2023-05-17T08:53:08;15.90;99.90
8220;DHT22;4151;51.110;7.020;2023-05-17T08:55:34;15.90;99.90
8220;DHT22;4151;51.110;7.020;2023-05-17T08:58:00;16.20;99.90
8220;DHT22;4151;51.110;7.020;2023-05-17T09:00:28;16.00;99.90
8220;DHT22;4151;51.110;7.020;2023-05-17T09:02:54;15.80;99.90
8220;DHT22;4151;51.110;7.020;2023-05-17T09:05:19;15.70;99.90
8220;DHT22;4151;51.110;7.020;2023-05-17T09:07:47;15.40;99.90
8220;DHT22;4151;51.110;7.020;2023-05-17T09:10:13;15.20;99.90
8220;DHT22;4151;51.110;7.020;2023-05-17T09:12:39;15.00;99.90
8220;DHT22;4151;51.110;7.020;2023-05-17T09:15:18;15.00;99.90
8220;DHT22;4151;51.110;7.020;2023-05-17T09:17:54;14.90;99.90
8220;DHT22;4151;51.110;7.020;2023-05-17T09:20:24;14.80;99.90
8220;DHT22;4151;51.110;7.020;2023-05-17T09:23:01;14.80;99.90
8220;DHT22;4151;51.110;7.020;2023-05-17T09:25:29;15.50;99.90
8220;DHT22;4151;51.110;7.020;2023-05-17T09:28:00;16.20;99.90
8220;DHT22;4151;51.110;7.020;2023-05-17T09:30:30;16.50;99.90
8220;DHT22;4151;51.110;7.020;2023-05-17T09:32:56;17.00;99.90
8220;DHT22;4151;51.110;7.020;2023-05-17T09:35:31;17.60;99.90
8220;DHT22;4151;51.110;7.020;2023-05-17T09:38:05;17.30;99.90
8220;DHT22;4151;51.110;7.020;2023-05-17T09:40:30;17.60;99.90
8220;DHT22;4151;51.110;7.020;2023-05-17T09:42:57;18.00;99.90
8220;DHT22;4151;51.110;7.020;2023-05-17T09:45:23;18.80;99.90
8220;DHT22;4151;51.110;7.020;2023-05-17T09:47:50;18.70;99.90
8220;DHT22;4151;51.110;7.020;2023-05-17T09:50:18;18.40;99.90
8220;DHT22;4151;51.110;7.020;2023-05-17T09:52:43;18.50;99.90
8220;DHT22;4151;51.110;7.020;2023-05-17T09:55:09;18.30;99.90
8220;DHT22;4151;51.110;7.020;2023-05-17T09:57:40;18.40;99.90
8220;DHT22;4151;51.110;7.020;2023-05-17T10:00:07;18.80;99.90
8220;DHT22;4151;51.110;7.020;2023-05-17T10:02:38;19.00;99.90
8220;DHT22;4151;51.110;7.020;2023-05-17T10:05:08;18.90;99.90
8220;DHT22;4151;51.110;7.020;2023-05-17T10:07:36;17.50;99.90
8220;DHT22;4151;51.110;7.020;2023-05-17T10:10:02;17.30;99.90
8220;DHT22;4151;51.110;7.020;2023-05-17T10:12:28;16.90;99.90
8220;DHT22;4151;51.110;7.020;2023-05-17T10:14:57;17.00;99.90
8220;DHT22;4151;51.110;7.020;2023-05-17T10:17:25;17.20;99.90
8220;DHT22;4151;51.110;7.020;2023-05-17T10:19:53;17.50;99.90
8220;DHT22;4151;51.110;7.020;2023-05-17T10:22:20;18.20;99.90
8220;DHT22;4151;51.110;7.020;2023-05-17T10:24:47;18.50;99.90
8220;DHT22;4151;51.110;7.020;2023-05-17T10:27:14;18.80;99.90
8220;DHT22;4151;51.110;7.020;2023-05-17T10:29:40;19.50;99.90
8220;DHT22;4151;51.110;7.020;2023-05-17T10:32:06;19.60;99.90
8220;DHT22;4151;51.110;7.020;2023-05-17T10:34:36;19.80;99.90
8220;DHT22;4151;51.110;7.020;2023-05-17T10:37:03;19.50;99.90
8220;DHT22;4151;51.110;7.020;2023-05-17T10:39:30;19.50;99.90
8220;DHT22;4151;51.110;7.020;2023-05-17T10:42:00;20.20;99.90
8220;DHT22;4151;51.110;7.020;2023-05-17T10:44:26;20.60;99.90
8220;DHT22;4151;51.110;7.020;2023-05-17T10:46:55;19.90;99.90
8220;DHT22;4151;51.110;7.020;2023-05-17T10:49:31;19.50;99.90
8220;DHT22;4151;51.110;7.020;2023-05-17T10:51:58;19.40;99.90
8220;DHT22;4151;51.110;7.020;2023-05-17T10:54:35;20.10;99.90
8220;DHT22;4151;51.110;7.020;2023-05-17T10:57:05;20.60;99.90
8220;DHT22;4151;51.110;7.020;2023-05-17T10:59:31;21.20;98.00
8220;DHT22;4151;51.110;7.020;2023-05-17T11:04:39;21.20;97.80
8220;DHT22;4151;51.110;7.020;2023-05-17T11:12:38;22.00;94.90
8220;DHT22;4151;51.110;7.020;2023-05-17T11:15:14;22.20;94.90
8220;DHT22;4151;51.110;7.020;2023-05-17T11:22:41;20.70;95.70
8220;DHT22;4151;51.110;7.020;2023-05-17T11:25:09;20.40;97.40
8220;DHT22;4151;51.110;7.020;2023-05-17T11:27:49;20.90;94.80
8220;DHT22;4151;51.110;7.020;2023-05-17T11:32:53;22.60;91.30
8220;DHT22;4151;51.110;7.020;2023-05-17T11:35:38;22.40;92.50
8220;DHT22;4151;51.110;7.020;2023-05-17T11:40:39;20.20;96.40
8220;DHT22;4151;51.110;7.020;2023-05-17T11:43:25;19.90;97.60
8220;DHT22;4151;51.110;7.020;2023-05-17T11:45:56;20.70;96.60
8220;DHT22;4151;51.110;7.020;2023-05-17T11:48:23;21.50;93.60
8220;DHT22;4151;51.110;7.020;2023-05-17T11:50:51;22.50;93.60
8220;DHT22;4151;51.110;7.020;2023-05-17T11:53:17;23.10;91.70
8220;DHT22;4151;51.110;7.020;2023-05-17T11:55:50;24.00;90.20
8220;DHT22;4151;51.110;7.020;2023-05-17T11:58:26;23.80;89.00
8220;DHT22;4151;51.110;7.020;2023-05-17T12:00:56;23.40;88.60
8220;DHT22;4151;51.110;7.020;2023-05-17T12:03:26;22.20;87.40
8220;DHT22;4151;51.110;7.020;2023-05-17T12:06:06;21.80;89.80
8220;DHT22;4151;51.110;7.020;2023-05-17T12:08:34;22.80;90.00
8220;DHT22;4151;51.110;7.020;2023-05-17T12:11:00;23.50;84.10
8220;DHT22;4151;51.110;7.020;2023-05-17T12:13:27;22.90;84.80
8220;DHT22;4151;51.110;7.020;2023-05-17T12:15:56;23.30;88.40
8220;DHT22;4151;51.110;7.020;2023-05-17T12:18:22;23.60;83.00
8220;DHT22;4151;51.110;7.020;2023-05-17T12:23:33;22.80;87.20
8220;DHT22;4151;51.110;7.020;2023-05-17T12:26:09;22.80;87.20
8220;DHT22;4151;51.110;7.020;2023-05-17T12:28:37;23.50;83.10
8220;DHT22;4151;51.110;7.020;2023-05-17T12:31:06;23.20;85.00
8220;DHT22;4151;51.110;7.020;2023-05-17T12:33:38;23.10;83.30
8220;DHT22;4151;51.110;7.020;2023-05-17T12:36:07;23.10;85.00
8220;DHT22;4151;51.110;7.020;2023-05-17T12:38:33;23.10;85.20
8220;DHT22;4151;51.110;7.020;2023-05-17T12:41:02;23.10;84.60
8220;DHT22;4151;51.110;7.020;2023-05-17T12:43:28;23.20;83.80
8220;DHT22;4151;51.110;7.020;2023-05-17T12:46:11;23.70;85.90
8220;DHT22;4151;51.110;7.020;2023-05-17T12:48:38;24.80;81.90
8220;DHT22;4151;51.110;7.020;2023-05-17T12:51:07;23.50;77.50
8220;DHT22;4151;51.110;7.020;2023-05-17T12:53:43;22.60;85.50
8220;DHT22;4151;51.110;7.020;2023-05-17T12:56:23;22.20;84.00
8220;DHT22;4151;51.110;7.020;2023-05-17T13:01:47;22.50;83.70
8220;DHT22;4151;51.110;7.020;2023-05-17T13:04:14;23.20;83.50
8220;DHT22;4151;51.110;7.020;2023-05-17T13:06:55;24.10;78.60
8220;DHT22;4151;51.110;7.020;2023-05-17T13:09:23;24.10;79.80
8220;DHT22;4151;51.110;7.020;2023-05-17T13:12:07;24.50;80.90
8220;DHT22;4151;51.110;7.020;2023-05-17T13:14:34;25.20;77.00
8220;DHT22;4151;51.110;7.020;2023-05-17T13:17:05;25.90;75.20
8220;DHT22;4151;51.110;7.020;2023-05-17T13:19:31;26.30;75.10
8220;DHT22;4151;51.110;7.020;2023-05-17T13:21:57;26.30;73.70
8220;DHT22;4151;51.110;7.020;2023-05-17T13:24:23;26.80;74.60
8220;DHT22;4151;51.110;7.020;2023-05-17T13:26:49;26.90;72.70
8220;DHT22;4151;51.110;7.020;2023-05-17T13:29:14;25.10;73.20
8220;DHT22;4151;51.110;7.020;2023-05-17T13:31:40;24.10;76.20
8220;DHT22;4151;51.110;7.020;2023-05-17T13:34:07;24.50;74.80
8220;DHT22;4151;51.110;7.020;2023-05-17T13:36:32;24.70;72.10
8220;DHT22;4151;51.110;7.020;2023-05-17T13:38:58;25.10;73.20
8220;DHT22;4151;51.110;7.020;2023-05-17T13:41:26;26.40;72.40
8220;DHT22;4151;51.110;7.020;2023-05-17T13:43:52;27.20;70.60
8220;DHT22;4151;51.110;7.020;2023-05-17T13:46:17;27.90;65.80
8220;DHT22;4151;51.110;7.020;2023-05-17T13:48:43;27.30;66.70
8220;DHT22;4151;51.110;7.020;2023-05-17T13:51:08;27.60;66.50
8220;DHT22;4151;51.110;7.020;2023-05-17T13:53:34;28.10;66.20
8220;DHT22;4151;51.110;7.020;2023-05-17T13:56:00;28.60;66.90
8220;DHT22;4151;51.110;7.020;2023-05-17T13:58:25;28.70;65.40
8220;DHT22;4151;51.110;7.020;2023-05-17T14:00:51;28.00;65.70
8220;DHT22;4151;51.110;7.020;2023-05-17T14:03:17;28.60;65.20
8220;DHT22;4151;51.110;7.020;2023-05-17T14:05:42;28.30;65.10
8220;DHT22;4151;51.110;7.020;2023-05-17T14:08:08;28.20;65.70
8220;DHT22;4151;51.110;7.020;2023-05-17T14:10:34;27.90;65.40
8220;DHT22;4151;51.110;7.020;2023-05-17T14:13:00;28.10;63.30
8220;DHT22;4151;51.110;7.020;2023-05-17T14:15:26;26.60;62.80
8220;DHT22;4151;51.110;7.020;2023-05-17T14:17:52;26.80;65.30
8220;DHT22;4151;51.110;7.020;2023-05-17T14:20:18;27.10;66.90
8220;DHT22;4151;51.110;7.020;2023-05-17T14:22:43;26.70;65.70
8220;DHT22;4151;51.110;7.020;2023-05-17T14:25:10;27.20;64.40
8220;DHT22;4151;51.110;7.020;2023-05-17T14:27:36;27.00;65.20
8220;DHT22;4151;51.110;7.020;2023-05-17T14:30:02;27.20;64.00
8220;DHT22;4151;51.110;7.020;2023-05-17T14:32:28;28.00;64.00
8220;DHT22;4151;51.110;7.020;2023-05-17T14:34:54;28.20;65.60
8220;DHT22;4151;51.110;7.020;2023-05-17T14:37:19;27.60;64.20
8220;DHT22;4151;51.110;7.020;2023-05-17T14:39:47;28.60;63.10
8220;DHT22;4151;51.110;7.020;2023-05-17T14:42:12;29.00;62.40
8220;DHT22;4151;51.110;7.020;2023-05-17T14:44:38;29.20;61.60
8220;DHT22;4151;51.110;7.020;2023-05-17T14:47:06;30.20;62.20
8220;DHT22;4151;51.110;7.020;2023-05-17T14:49:31;30.90;62.70
8220;DHT22;4151;51.110;7.020;2023-05-17T14:51:57;31.90;59.50
8220;DHT22;4151;51.110;7.020;2023-05-17T14:54:23;32.30;59.00
8220;DHT22;4151;51.110;7.020;2023-05-17T14:56:50;32.30;57.20
8220;DHT22;4151;51.110;7.020;2023-05-17T14:59:16;30.60;59.40
8220;DHT22;4151;51.110;7.020;2023-05-17T15:01:42;30.60;59.60
8220;DHT22;4151;51.110;7.020;2023-05-17T15:04:07;30.30;60.60
8220;DHT22;4151;51.110;7.020;2023-05-17T15:06:34;30.80;59.00
8220;DHT22;4151;51.110;7.020;2023-05-17T15:09:00;31.70;57.70
8220;DHT22;4151;51.110;7.020;2023-05-17T15:11:28;31.70;57.60
8220;DHT22;4151;51.110;7.020;2023-05-17T15:13:54;30.90;57.60
8220;DHT22;4151;51.110;7.020;2023-05-17T15:16:20;30.30;58.10
8220;DHT22;4151;51.110;7.020;2023-05-17T15:18:46;30.00;57.40
8220;DHT22;4151;51.110;7.020;2023-05-17T15:21:12;31.20;57.80
8220;DHT22;4151;51.110;7.020;2023-05-17T15:23:38;32.10;56.80
8220;DHT22;4151;51.110;7.020;2023-05-17T15:26:03;31.70;56.50
8220;DHT22;4151;51.110;7.020;2023-05-17T15:28:29;31.20;55.80
8220;DHT22;4151;51.110;7.020;2023-05-17T15:31:02;30.80;56.60
8220;DHT22;4151;51.110;7.020;2023-05-17T15:33:30;30.10;56.50
8220;DHT22;4151;51.110;7.020;2023-05-17T15:35:56;30.70;56.60
8220;DHT22;4151;51.110;7.020;2023-05-17T15:38:22;31.20;56.50
8220;DHT22;4151;51.110;7.020;2023-05-17T15:41:05;30.40;55.40
8220;DHT22;4151;51.110;7.020;2023-05-17T15:43:33;30.60;55.90
8220;DHT22;4151;51.110;7.020;2023-05-17T15:45:58;30.60;56.10
8220;DHT22;4151;51.110;7.020;2023-05-17T15:48:24;30.20;56.50
8220;DHT22;4151;51.110;7.020;2023-05-17T15:50:53;28.60;57.60
8220;DHT22;4151;51.110;7.020;2023-05-17T15:53:19;28.80;57.90
8220;DHT22;4151;51.110;7.020;2023-05-17T15:55:44;28.70;58.80
8220;DHT22;4151;51.110;7.020;2023-05-17T15:58:18;29.10;58.00
8220;DHT22;4151;51.110;7.020;2023-05-17T16:00:45;29.50;58.00
8220;DHT22;4151;51.110;7.020;2023-05-17T16:03:11;29.30;58.10
8220;DHT22;4151;51.110;7.020;2023-05-17T16:05:37;31.20;57.60
8220;DHT22;4151;51.110;7.020;2023-05-17T16:08:03;31.60;56.80
8220;DHT22;4151;51.110;7.020;2023-05-17T16:10:28;31.30;56.00
8220;DHT22;4151;51.110;7.020;2023-05-17T16:12:54;31.10;56.10
8220;DHT22;4151;51.110;7.020;2023-05-17T16:15:20;30.90;55.50
8220;DHT22;4151;51.110;7.020;2023-05-17T16:17:45;30.50;55.50
8220;DHT22;4151;51.110;7.020;2023-05-17T16:20:11;28.80;56.30
8220;DHT22;4151;51.110;7.020;2023-05-17T16:22:43;30.90;57.10
8220;DHT22;4151;51.110;7.020;2023-05-17T16:25:10;30.20;56.30
8220;DHT22;4151;51.110;7.020;2023-05-17T16:27:37;29.20;56.10
8220;DHT22;4151;51.110;7.020;2023-05-17T16:30:03;28.40;57.80
8220;DHT22;4151;51.110;7.020;2023-05-17T16:32:29;27.50;58.70
8220;DHT22;4151;51.110;7.020;2023-05-17T16:34:54;28.80;58.20
8220;DHT22;4151;51.110;7.020;2023-05-17T16:37:20;28.40;57.80
8220;DHT22;4151;51.110;7.020;2023-05-17T16:39:45;27.90;58.70
8220;DHT22;4151;51.110;7.020;2023-05-17T16:42:11;29.10;58.30
8220;DHT22;4151;51.110;7.020;2023-05-17T16:44:37;29.30;56.90